Time;durP1;ratioP1;P1;durP2;ratioP2;P2;SDS_P1;SDS_P2;PMS_P1;PMS_P2;Temp;Humidity;BMP_temperature;BMP_pressure;BME280_temperature;BME280_humidity;BME280_pressure;Samples;Min_cycle;Max_cycle;Signal;HPM_P1;HPM_P2
2022/09/19 00:08:31;;;;;;;4.42;1.90;;;;;;;6.12;85.34;99660.53;1788190;79;22673;-75
2022/09/19 00:10:59;;;;;;;3.12;2.35;;;;;;;6.09;85.37;99663.46;1693391;83;21006;-74
2022/09/19 00:13:26;;;;;;;3.40;1.27;;;;;;;6.11;85.41;99662.83;1659524;84;21105;-74
2022/09/19 00:15:52;;;;;;;3.25;1.75;;;;;;;6.12;85.46;99663.66;1682153;83;20944;-75
2022/09/19 00:18:18;;;;;;;3.55;2.00;;;;;;;6.13;85.51;99666.63;1680518;83;21084;-74
2022/09/19 00:20:44;;;;;;;2.77;1.60;;;;;;;6.15;85.57;99659.37;1703761;84;21555;-75
2022/09/19 00:26:01;;;;;;;6.80;2.42;;;;;;;6.22;85.66;99658.58;1673498;83;21237;-75
2022/09/19 00:28:28;;;;;;;6.20;3.23;;;;;;;6.28;85.73;99660.57;1680127;82;21102;-74
2022/09/19 00:30:55;;;;;;;5.08;1.57;;;;;;;6.33;85.79;99660.90;1703139;82;21120;-74
2022/09/19 00:33:22;;;;;;;6.80;2.55;;;;;;;6.36;85.85;99661.93;1692503;82;21107;-74
2022/09/19 00:35:54;;;;;;;5.97;2.62;;;;;;;6.39;85.91;99662.09;1685719;83;21109;-74
2022/09/19 00:38:19;;;;;;;4.45;2.65;;;;;;;6.40;85.96;99657.14;1712566;82;21865;-74
2022/09/19 00:40:45;;;;;;;5.83;2.92;;;;;;;6.39;86.00;99656.30;1695391;83;21010;-74
2022/09/19 00:43:12;;;;;;;6.72;2.22;;;;;;;6.38;86.05;99660.42;1680520;83;21112;-74
2022/09/19 00:45:38;;;;;;;4.60;2.12;;;;;;;6.38;86.12;99659.10;1699879;82;21122;-74
2022/09/19 00:48:04;;;;;;;5.42;2.77;;;;;;;6.39;86.17;99659.45;1706946;82;21513;-74
2022/09/19 00:50:30;;;;;;;5.67;2.30;;;;;;;6.37;86.20;99662.23;1678194;83;21056;-74
2022/09/19 00:53:13;;;;;;;4.17;2.08;;;;;;;6.36;86.26;99655.31;1684663;82;21019;-75
2022/09/19 00:55:39;;;;;;;3.15;1.90;;;;;;;6.35;86.31;99658.94;1719540;83;21078;-74
2022/09/19 00:58:11;;;;;;;5.33;1.85;;;;;;;6.35;86.35;99664.23;1713439;82;21036;-74
2022/09/19 01:00:37;;;;;;;3.52;2.15;;;;;;;6.34;86.39;99659.09;1703499;82;21040;-75
2022/09/19 01:03:09;;;;;;;6.40;2.12;;;;;;;6.32;86.45;99659.27;1697276;83;21249;-75
2022/09/19 01:06:11;;;;;;;7.55;2.47;;;;;;;6.30;86.48;99655.93;1642445;86;22014;-75
2022/09/19 01:09:08;;;;;;;5.65;2.60;;;;;;;6.29;86.54;99661.41;1586055;87;21102;-74
2022/09/19 01:12:01;;;;;;;5.87;2.25;;;;;;;6.27;86.57;99662.88;1605842;89;21073;-75
2022/09/19 01:15:19;;;;;;;2.98;1.87;;;;;;;6.26;86.61;99661.73;1647350;84;21076;-74
2022/09/19 01:18:00;;;;;;;3.58;1.92;;;;;;;6.26;86.65;99665.18;1656752;84;21670;-74
2022/09/19 01:20:35;;;;;;;4.45;1.87;;;;;;;6.24;86.68;99657.91;1692953;83;21049;-74
2022/09/19 01:23:19;;;;;;;3.05;1.70;;;;;;;6.23;86.71;99664.18;1693329;83;21089;-74
2022/09/19 01:26:25;;;;;;;2.67;1.62;;;;;;;6.20;86.75;99660.53;1665055;84;21138;-74
2022/09/19 01:28:59;;;;;;;8.33;2.27;;;;;;;6.21;86.77;99659.55;1670622;83;22203;-74
2022/09/19 01:31:29;;;;;;;6.58;2.27;;;;;;;6.24;86.83;99659.23;1683720;83;21154;-74
2022/09/19 01:34:04;;;;;;;3.15;2.30;;;;;;;6.25;86.87;99667.52;1693790;83;21074;-74
2022/09/19 01:36:41;;;;;;;9.10;3.00;;;;;;;6.25;86.92;99662.22;1671835;84;21080;-74
2022/09/19 01:39:08;;;;;;;5.78;2.77;;;;;;;6.29;86.94;99659.59;1670205;84;21057;-73
2022/09/19 01:41:34;;;;;;;8.33;2.87;;;;;;;6.34;86.98;99667.03;1660583;84;21103;-74
2022/09/19 01:44:08;;;;;;;3.42;2.67;;;;;;;6.39;87.01;99668.72;1667016;84;21550;-74
2022/09/19 01:46:57;;;;;;;9.63;3.03;;;;;;;6.43;87.05;99667.41;1681186;84;21531;-74
2022/09/19 01:49:50;;;;;;;6.40;2.90;;;;;;;6.51;87.10;99665.59;1665860;84;21030;-74
2022/09/19 01:52:36;;;;;;;4.87;2.85;;;;;;;6.59;87.12;99673.22;1663464;84;21039;-74
2022/09/19 01:55:24;;;;;;;10.15;3.02;;;;;;;6.67;87.17;99675.90;1675365;84;21075;-74
2022/09/19 01:58:34;;;;;;;8.80;2.60;;;;;;;6.73;87.22;99680.05;1674344;84;21839;-74
2022/09/19 02:01:14;;;;;;;8.33;2.75;;;;;;;6.79;87.26;99675.94;1674868;84;21630;-74
2022/09/19 02:03:52;;;;;;;6.33;3.27;;;;;;;6.84;87.31;99666.98;1681397;84;21126;-75
2022/09/19 02:06:43;;;;;;;8.75;3.87;;;;;;;6.89;87.33;99672.63;1693589;83;21018;-74
2022/09/19 02:09:29;;;;;;;7.47;3.45;;;;;;;6.91;87.36;99678.09;1667963;83;21540;-74
2022/09/19 02:11:59;;;;;;;5.72;2.87;;;;;;;6.95;87.38;99678.59;1665660;83;21288;-74
2022/09/19 02:14:26;;;;;;;4.45;2.58;;;;;;;6.97;87.43;99680.56;1666589;84;21043;-74
2022/09/19 02:16:58;;;;;;;7.45;3.15;;;;;;;7.00;87.45;99684.23;1651956;83;21077;-74
2022/09/19 02:19:33;;;;;;;4.33;2.72;;;;;;;7.02;87.46;99680.91;1659569;83;21118;-74
2022/09/19 02:22:06;;;;;;;5.50;2.50;;;;;;;7.05;87.50;99683.23;1684413;84;21099;-73
2022/09/19 02:24:34;;;;;;;7.30;3.52;;;;;;;7.06;87.54;99682.25;1662987;84;22049;-74
2022/09/19 02:27:07;;;;;;;5.85;3.35;;;;;;;7.08;87.57;99688.20;1674402;84;21059;-74
2022/09/19 02:29:33;;;;;;;4.95;2.98;;;;;;;7.09;87.58;99682.41;1651930;84;21044;-74
2022/09/19 02:31:59;;;;;;;4.12;3.00;;;;;;;7.09;87.60;99681.91;1667786;84;21043;-75
2022/09/19 02:34:25;;;;;;;6.50;3.00;;;;;;;7.09;87.61;99683.23;1681468;84;21541;-74
2022/09/19 02:37:01;;;;;;;4.60;3.02;;;;;;;7.10;87.64;99682.25;1694122;84;22052;-74
2022/09/19 02:39:32;;;;;;;6.60;3.47;;;;;;;7.11;87.65;99675.94;1671045;83;21610;-75
2022/09/19 02:42:13;;;;;;;4.67;3.00;;;;;;;7.10;87.68;99676.95;1643750;86;21073;-74
2022/09/19 02:45:17;;;;;;;6.58;3.75;;;;;;;7.10;87.71;99686.23;1659581;84;21020;-74
2022/09/19 02:48:06;;;;;;;7.80;3.83;;;;;;;7.12;87.74;99683.40;1661081;84;21073;-75
2022/09/19 02:50:40;;;;;;;6.30;3.77;;;;;;;7.10;87.87;99680.93;1696452;83;21179;-75
2022/09/19 02:53:11;;;;;;;5.33;3.77;;;;;;;7.10;87.87;99680.93;1672176;83;21779;-75
2022/09/19 02:55:46;;;;;;;4.83;3.20;;;;;;;7.11;87.80;99681.77;1686896;84;21046;-74
2022/09/19 02:58:15;;;;;;;5.08;3.47;;;;;;;7.11;87.80;99683.09;1671588;84;21612;-74
2022/09/19 03:00:51;;;;;;;6.47;3.00;;;;;;;7.10;87.80;99683.58;1664318;84;21499;-75
2022/09/19 03:06:12;;;;;;;5.33;3.00;;;;;;;7.10;87.85;99684.07;1694299;83;21055;-74
2022/09/19 03:08:39;;;;;;;13.15;3.45;;;;;;;7.09;87.88;99687.22;1668108;84;21089;-73
2022/09/19 03:11:15;;;;;;;8.05;3.70;;;;;;;7.12;87.89;99688.20;1666879;84;21017;-74
2022/09/19 03:13:41;;;;;;;7.10;3.60;;;;;;;7.16;87.93;99692.19;1631561;84;21014;-74
2022/09/19 03:16:16;;;;;;;5.92;3.08;;;;;;;7.21;87.94;99693.86;1665524;84;21051;-74
2022/09/19 03:18:46;;;;;;;7.60;3.10;;;;;;;7.25;87.96;99699.63;1680359;85;21040;-74
2022/09/19 03:21:13;;;;;;;5.53;2.83;;;;;;;7.26;88.00;99696.83;1690534;84;21014;-74
2022/09/19 03:23:42;;;;;;;5.95;3.40;;;;;;;7.29;88.00;99698.31;1693370;83;21709;-74
2022/09/19 03:26:14;;;;;;;6.90;3.10;;;;;;;7.31;88.02;99706.45;1684485;83;21047;-74
2022/09/19 03:28:40;;;;;;;6.70;3.40;;;;;;;7.34;88.02;99711.42;1670586;84;21125;-75
2022/09/19 03:31:06;;;;;;;5.40;3.27;;;;;;;7.35;88.01;99717.56;1661346;84;21642;-74
2022/09/19 03:33:33;;;;;;;5.65;3.42;;;;;;;7.36;88.04;99717.38;1690487;84;20983;-74
2022/09/19 03:36:07;;;;;;;10.03;3.92;;;;;;;7.37;88.04;99715.06;1663297;83;21147;-74
2022/09/19 03:38:30;;;;;;;6.37;3.40;;;;;;;7.38;88.05;99722.03;1669920;83;21013;-74
2022/09/19 03:40:56;;;;;;;5.62;3.65;;;;;;;7.41;88.08;99716.39;1653592;84;21275;-74
2022/09/19 03:43:22;;;;;;;3.98;3.08;;;;;;;7.42;88.11;99725.98;1667721;84;21062;-74
2022/09/19 03:45:48;;;;;;;7.10;3.60;;;;;;;7.43;88.10;99719.70;1690606;83;21011;-74
2022/09/19 03:48:15;;;;;;;3.27;2.85;;;;;;;7.44;88.11;99726.67;1690902;83;20895;-74
2022/09/19 03:50:41;;;;;;;4.10;2.98;;;;;;;7.45;88.10;99724.36;1681038;84;21019;-74
2022/09/19 03:53:08;;;;;;;6.45;3.20;;;;;;;7.44;88.11;99721.36;1695062;83;21733;-74
2022/09/19 03:55:37;;;;;;;8.55;3.12;;;;;;;7.48;88.13;99728.48;1685499;84;21024;-74
2022/09/19 03:58:04;;;;;;;5.23;3.27;;;;;;;7.50;88.15;99719.86;1669990;83;21010;-74
2022/09/19 04:00:30;;;;;;;7.00;4.53;;;;;;;7.51;88.16;99730.31;1696061;84;21053;-74
2022/09/19 04:02:57;;;;;;;5.70;3.77;;;;;;;7.50;88.14;99729.97;1695559;83;21555;-74
2022/09/19 04:05:23;;;;;;;5.67;3.15;;;;;;;7.51;88.17;99730.31;1694873;83;21136;-74
2022/09/19 04:07:50;;;;;;;5.20;3.27;;;;;;;7.52;88.18;99729.33;1688551;83;21011;-75
2022/09/19 04:10:16;;;;;;;5.75;3.50;;;;;;;7.55;88.19;99738.77;1682404;83;21087;-74
2022/09/19 04:12:42;;;;;;;3.70;2.77;;;;;;;7.57;88.17;99735.93;1653921;84;21066;-74
2022/09/19 04:15:09;;;;;;;6.28;3.12;;;;;;;7.58;88.19;99736.27;1647468;85;21485;-74
2022/09/19 04:17:35;;;;;;;5.45;2.62;;;;;;;7.60;88.20;99742.26;1691955;83;21847;-74
2022/09/19 04:20:01;;;;;;;5.87;3.65;;;;;;;7.59;88.18;99738.77;1644614;85;21028;-74
2022/09/19 04:22:27;;;;;;;6.37;3.60;;;;;;;7.58;88.19;99741.09;1677855;83;21430;-74
2022/09/19 04:24:53;;;;;;;7.28;4.08;;;;;;;7.57;88.18;99735.93;1672688;85;21010;-75
2022/09/19 04:27:19;;;;;;;7.10;4.17;;;;;;;7.57;88.20;99745.22;1673053;84;21089;-74
2022/09/19 04:29:45;;;;;;;6.00;3.58;;;;;;;7.60;88.35;99746.23;1673515;83;21774;-74
2022/09/19 04:32:12;;;;;;;10.45;3.62;;;;;;;7.61;88.20;99749.20;1647196;84;20932;-74
2022/09/19 04:34:38;;;;;;;8.23;4.25;;;;;;;7.59;88.19;99749.87;1678679;84;21058;-74
2022/09/19 04:37:06;;;;;;;8.88;3.72;;;;;;;7.58;88.18;99750.86;1701428;84;20962;-74
2022/09/19 04:39:32;;;;;;;5.95;3.70;;;;;;;7.57;88.20;99755.34;1683757;83;21087;-74
2022/09/19 04:42:00;;;;;;;7.62;3.50;;;;;;;7.57;88.21;99762.47;1677533;83;21052;-74
2022/09/19 04:44:27;;;;;;;6.22;3.72;;;;;;;7.57;88.19;99759.81;1692841;84;21399;-74
2022/09/19 04:46:54;;;;;;;7.08;3.92;;;;;;;7.57;88.19;99761.14;1687007;83;21510;-74
2022/09/19 04:49:20;;;;;;;9.45;4.50;;;;;;;7.58;88.19;99764.13;1679530;84;21057;-74
2022/09/19 04:51:46;;;;;;;6.60;4.20;;;;;;;7.61;88.21;99765.95;1656102;85;21430;-75
2022/09/19 04:54:14;;;;;;;6.62;4.35;;;;;;;7.64;88.23;99772.25;1650788;84;21286;-74
2022/09/19 04:56:46;;;;;;;6.97;4.50;;;;;;;7.65;88.22;99778.39;1656545;84;21751;-74
2022/09/19 04:59:08;;;;;;;7.97;4.05;;;;;;;7.63;88.20;99777.25;1682219;84;21481;-74
2022/09/19 05:01:35;;;;;;;7.28;3.67;;;;;;;7.63;88.19;99777.74;1663831;85;20932;-74
2022/09/19 05:04:03;;;;;;;4.45;3.45;;;;;;;7.66;88.21;99784.04;1655417;84;21088;-74
2022/09/19 05:06:31;;;;;;;9.68;3.85;;;;;;;7.68;88.23;99784.20;1644649;85;21377;-74
2022/09/19 05:08:57;;;;;;;7.42;4.10;;;;;;;7.69;88.24;99783.21;1667269;83;21543;-74
2022/09/19 05:11:24;;;;;;;9.08;5.72;;;;;;;7.71;88.24;99785.67;1669739;84;21034;-74
2022/09/19 05:13:52;;;;;;;6.50;3.67;;;;;;;7.74;88.24;99788.03;1675575;83;21063;-74
2022/09/19 05:16:18;;;;;;;5.60;3.60;;;;;;;7.76;88.25;99792.16;1690621;84;21067;-74
2022/09/19 05:18:44;;;;;;;7.15;3.87;;;;;;;7.77;88.26;99791.17;1676466;84;21173;-74
2022/09/19 05:21:14;;;;;;;7.62;3.92;;;;;;;7.80;88.27;99803.27;1699179;84;21502;-75
2022/09/19 05:23:40;;;;;;;6.25;3.92;;;;;;;7.79;88.25;99806.42;1697621;83;21503;-74
2022/09/19 05:26:16;;;;;;;5.75;4.47;;;;;;;7.83;88.27;99810.91;1656610;83;21067;-74
2022/09/19 05:28:40;;;;;;;6.80;4.60;;;;;;;7.87;88.26;99814.89;1669464;84;21090;-74
2022/09/19 05:31:07;;;;;;;9.73;4.50;;;;;;;7.91;88.28;99816.22;1680797;83;21661;-73
2022/09/19 05:33:34;;;;;;;6.30;4.25;;;;;;;7.94;88.28;99815.88;1678433;83;21082;-74
2022/09/19 05:36:01;;;;;;;6.42;4.20;;;;;;;8.00;88.30;99824.49;1682517;84;21021;-74
2022/09/19 05:38:29;;;;;;;9.35;4.62;;;;;;;8.04;88.32;99828.48;1681635;84;21504;-74
2022/09/19 05:40:56;;;;;;;8.33;4.58;;;;;;;8.06;88.31;99825.67;1682460;83;21067;-74
2022/09/19 05:43:22;;;;;;;8.75;4.47;;;;;;;8.06;88.31;99831.78;1680706;83;21183;-74
2022/09/19 05:45:50;;;;;;;13.20;4.40;;;;;;;8.06;88.33;99827.80;1670042;85;21072;-74
2022/09/19 05:48:16;;;;;;;7.85;3.92;;;;;;;8.09;88.33;99830.64;1697312;83;21052;-74
2022/09/19 05:50:43;;;;;;;7.50;4.28;;;;;;;8.10;88.33;99829.12;1688092;84;21012;-73
2022/09/19 05:55:57;;;;;;;7.85;3.90;;;;;;;8.16;88.31;99835.61;1674038;85;21761;-73
2022/09/19 05:58:24;;;;;;;8.48;4.28;;;;;;;8.19;88.30;99842.74;1659938;84;21082;-73
2022/09/19 06:00:51;;;;;;;12.65;6.33;;;;;;;8.19;88.34;99840.08;1698095;83;21108;-73
2022/09/19 06:03:17;;;;;;;17.55;10.25;;;;;;;8.20;88.32;99846.23;1698183;83;21443;-73
2022/09/19 06:05:45;;;;;;;13.80;6.95;;;;;;;8.22;88.31;99847.71;1698334;83;21550;-73
2022/09/19 06:08:12;;;;;;;47.10;16.87;;;;;;;8.26;88.33;99849.04;1702867;83;21150;-73
2022/09/19 06:10:40;;;;;;;26.05;9.60;;;;;;;8.26;88.31;99845.05;1701193;82;21467;-74
2022/09/19 06:13:11;;;;;;;21.87;8.95;;;;;;;8.29;88.27;99846.08;1700450;82;21108;-74
2022/09/19 06:15:37;;;;;;;14.53;6.83;;;;;;;8.33;88.27;99850.05;1686195;82;21023;-74
2022/09/19 06:18:03;;;;;;;11.93;4.70;;;;;;;8.38;88.26;99849.03;1657279;85;21042;-74
2022/09/19 06:20:29;;;;;;;12.73;6.58;;;;;;;8.42;88.22;99849.03;1696579;83;21824;-75
2022/09/19 06:23:00;;;;;;;9.45;5.37;;;;;;;8.50;88.23;99847.69;1675837;84;21085;-74
2022/09/19 06:25:27;;;;;;;13.03;6.12;;;;;;;8.53;88.23;99844.69;1662381;83;21012;-74
2022/09/19 06:27:55;;;;;;;12.47;6.65;;;;;;;8.53;88.17;99850.00;1646037;85;21031;-74
2022/09/19 06:30:22;;;;;;;13.80;6.25;;;;;;;8.54;88.14;99842.86;1691762;83;21588;-74
2022/09/19 06:32:49;;;;;;;7.72;5.53;;;;;;;8.60;88.14;99846.16;1679133;83;21232;-74
2022/09/19 06:35:15;;;;;;;14.45;6.08;;;;;;;8.65;88.13;99848.31;1693871;82;21061;-74
2022/09/19 06:37:41;;;;;;;14.93;6.95;;;;;;;8.81;87.98;99849.58;1696765;83;21781;-74
2022/09/19 06:40:08;;;;;;;12.45;5.70;;;;;;;8.81;87.98;99849.58;1695066;82;21030;-74
2022/09/19 06:42:34;;;;;;;12.20;5.58;;;;;;;8.87;88.09;99851.53;1678868;84;21044;-74
2022/09/19 06:45:01;;;;;;;13.10;6.45;;;;;;;8.94;88.08;99853.83;1699640;83;21558;-74
2022/09/19 06:47:27;;;;;;;10.88;5.90;;;;;;;9.01;88.05;99848.16;1681263;84;21030;-75
2022/09/19 06:49:53;;;;;;;16.17;6.25;;;;;;;9.03;88.03;99849.66;1671616;83;21027;-75
2022/09/19 06:52:19;;;;;;;14.85;5.25;;;;;;;9.04;88.00;99853.15;1683444;84;21098;-75
2022/09/19 06:54:45;;;;;;;11.28;4.83;;;;;;;9.03;87.97;99862.13;1693266;83;21041;-74
2022/09/19 06:57:11;;;;;;;10.95;6.45;;;;;;;9.05;87.93;99853.45;1701820;82;21756;-74
2022/09/19 06:59:38;;;;;;;6.95;4.40;;;;;;;9.12;87.91;99855.75;1655746;85;20922;-74
2022/09/19 07:02:04;;;;;;;11.70;4.80;;;;;;;9.11;87.88;99843.97;1666028;84;21046;-74
2022/09/19 07:04:34;;;;;;;8.43;4.90;;;;;;;9.26;87.84;99861.66;1675601;84;21056;-75
2022/09/19 07:06:58;;;;;;;9.70;5.00;;;;;;;9.33;87.83;99862.63;1664539;85;21000;-75
2022/09/19 07:09:24;;;;;;;11.08;5.03;;;;;;;9.36;87.79;99863.59;1691109;82;21134;-74
2022/09/19 07:11:56;;;;;;;8.40;4.90;;;;;;;9.36;87.72;99868.92;1698424;82;21029;-74
2022/09/19 07:14:21;;;;;;;9.10;4.70;;;;;;;9.35;87.66;99871.28;1659325;84;21930;-74
2022/09/19 07:16:47;;;;;;;6.75;4.30;;;;;;;9.40;87.66;99868.91;1668088;84;21064;-74
2022/09/19 07:19:13;;;;;;;9.95;4.53;;;;;;;9.43;87.62;99871.20;1677907;85;21076;-74
2022/09/19 07:21:39;;;;;;;7.22;4.47;;;;;;;9.45;87.56;99875.88;1651363;84;21159;-75
2022/09/19 07:24:06;;;;;;;8.80;4.87;;;;;;;9.48;87.53;99881.34;1687501;82;21591;-74
2022/09/19 07:26:33;;;;;;;7.22;4.20;;;;;;;9.52;87.47;99887.47;1645491;85;21102;-74
2022/09/19 07:28:59;;;;;;;7.92;3.67;;;;;;;9.54;87.43;99888.11;1675643;84;21102;-74
2022/09/19 07:31:28;;;;;;;6.00;3.60;;;;;;;9.56;87.43;99892.44;1675986;85;21028;-75
2022/09/19 07:33:54;;;;;;;7.20;3.65;;;;;;;9.60;87.37;99891.09;1680767;84;21520;-75
2022/09/19 07:36:21;;;;;;;5.00;3.52;;;;;;;9.66;87.34;99893.04;1675223;84;21013;-75
2022/09/19 07:38:48;;;;;;;10.65;4.35;;;;;;;9.74;87.32;99895.66;1702506;82;21114;-75
2022/09/19 07:41:16;;;;;;;6.25;4.00;;;;;;;9.78;87.25;99896.97;1685581;84;21043;-75
2022/09/19 07:43:43;;;;;;;9.85;3.98;;;;;;;9.79;87.15;99895.94;1702792;82;21097;-75
2022/09/19 07:46:14;;;;;;;8.10;3.85;;;;;;;9.80;87.12;99900.27;1695803;82;21552;-75
2022/09/19 07:48:37;;;;;;;7.35;3.98;;;;;;;9.85;87.04;99905.38;1701521;82;21104;-75
2022/09/19 07:51:04;;;;;;;4.28;3.08;;;;;;;9.89;86.98;99899.19;1709016;82;21058;-76
2022/09/19 07:53:30;;;;;;;5.37;3.70;;;;;;;9.87;86.89;99907.88;1703460;82;21074;-75
2022/09/19 07:55:57;;;;;;;7.42;4.05;;;;;;;9.93;86.85;99911.98;1700518;82;21019;-75
2022/09/19 07:58:25;;;;;;;9.28;4.00;;;;;;;9.96;86.76;99912.95;1696429;82;21809;-75
2022/09/19 08:00:51;;;;;;;7.42;4.42;;;;;;;9.99;86.69;99918.45;1661514;84;21441;-76
2022/09/19 08:03:18;;;;;;;7.05;4.50;;;;;;;10.04;86.61;99920.06;1676847;84;21019;-76
2022/09/19 08:05:47;;;;;;;6.75;4.20;;;;;;;10.09;86.51;99923.53;1677009;84;21542;-76
2022/09/19 08:08:15;;;;;;;10.87;4.50;;;;;;;10.12;86.47;99929.34;1680695;83;21133;-76
2022/09/19 08:10:41;;;;;;;6.85;3.50;;;;;;;10.14;86.36;99928.67;1692573;83;21134;-76
2022/09/19 08:13:09;;;;;;;6.05;3.50;;;;;;;10.10;86.28;99922.53;1678997;84;21527;-75
2022/09/19 08:15:35;;;;;;;8.60;3.62;;;;;;;10.01;86.16;99927.91;1663551;84;21619;-75
2022/09/19 08:18:19;;;;;;;12.75;5.47;;;;;;;9.94;86.05;99936.79;1664063;85;21031;-75
2022/09/19 08:20:45;;;;;;;7.08;4.10;;;;;;;9.92;85.96;99942.81;1692861;83;21090;-75
2022/09/19 08:23:16;;;;;;;8.13;4.30;;;;;;;9.92;85.90;99941.48;1679972;83;21157;-75
2022/09/19 08:25:46;;;;;;;5.05;3.58;;;;;;;9.90;85.79;99944.30;1686364;84;21068;-75
2022/09/19 08:28:14;;;;;;;8.77;3.87;;;;;;;9.93;85.74;99949.77;1656025;84;21127;-76
2022/09/19 08:30:42;;;;;;;6.27;3.63;;;;;;;9.94;85.65;99944.78;1673531;83;21616;-76
2022/09/19 08:33:08;;;;;;;4.55;3.00;;;;;;;9.94;85.62;99948.77;1678252;84;21107;-76
2022/09/19 08:35:37;;;;;;;5.85;3.72;;;;;;;9.99;85.60;99952.55;1669362;83;21750;-76
2022/09/19 08:38:02;;;;;;;6.55;3.40;;;;;;;10.00;85.52;99957.38;1682307;84;21062;-76
2022/09/19 08:40:31;;;;;;;5.78;3.70;;;;;;;9.98;85.47;99952.75;1706217;83;21710;-76
2022/09/19 08:43:20;;;;;;;8.50;4.27;;;;;;;9.99;85.44;99955.75;1681107;84;21095;-77
2022/09/19 08:46:25;;;;;;;9.53;4.70;;;;;;;9.92;85.38;99958.79;1662225;84;21115;-76
2022/09/19 08:49:05;;;;;;;11.63;6.47;;;;;;;9.81;85.36;99957.86;1680591;84;21142;-76
2022/09/19 08:51:48;;;;;;;7.70;5.20;;;;;;;9.72;85.37;99962.39;1686285;84;21039;-77
2022/09/19 08:54:37;;;;;;;6.35;4.72;;;;;;;9.66;85.34;99960.93;1662818;84;21058;-77
2022/09/19 08:57:05;;;;;;;12.75;5.53;;;;;;;9.61;85.40;99964.60;1693940;83;21093;-77
2022/09/19 08:59:36;;;;;;;11.22;6.58;;;;;;;9.61;85.45;99971.26;1655186;84;21052;-77
2022/09/19 09:02:19;;;;;;;9.05;5.62;;;;;;;9.63;85.49;99974.59;1669107;84;21641;-77
2022/09/19 09:04:45;;;;;;;16.67;9.90;;;;;;;9.68;85.56;99973.55;1675267;83;21527;-77
2022/09/19 09:07:32;;;;;;;26.48;13.85;;;;;;;9.72;85.63;99977.03;1685067;83;21094;-77
2022/09/19 09:10:31;;;;;;;19.82;13.88;;;;;;;9.74;85.69;99971.05;1691115;83;21034;-76
2022/09/19 09:13:13;;;;;;;10.18;7.80;;;;;;;9.78;85.76;99984.84;1665157;84;21063;-75
2022/09/19 09:15:59;;;;;;;10.58;6.87;;;;;;;9.83;85.84;99974.48;1670226;84;21552;-76
2022/09/19 09:18:46;;;;;;;15.55;8.05;;;;;;;9.85;85.91;99977.81;1673255;85;21008;-75
2022/09/19 09:21:43;;;;;;;10.58;8.73;;;;;;;9.91;85.98;99983.76;1693557;83;21533;-77
2022/09/19 09:24:20;;;;;;;12.10;8.45;;;;;;;9.92;86.07;99986.76;1671764;84;21070;-76
2022/09/19 09:26:46;;;;;;;10.53;7.05;;;;;;;9.96;86.14;99996.03;1660156;85;21059;-77
2022/09/19 09:29:38;;;;;;;8.38;6.47;;;;;;;9.99;86.22;99995.17;1657272;85;21155;-76
2022/09/19 09:32:20;;;;;;;9.10;6.50;;;;;;;9.95;86.27;99991.73;1672614;84;21012;-76
2022/09/19 09:35:27;;;;;;;6.30;5.00;;;;;;;9.93;86.36;100000.37;1663028;85;21032;-77
2022/09/19 09:38:04;;;;;;;6.62;5.37;;;;;;;9.97;86.43;100000.36;1672172;85;21028;-76
2022/09/19 09:43:55;;;;;;;6.55;4.20;;;;;;;10.00;86.54;99998.67;1668301;84;21208;-77
2022/09/19 09:46:29;;;;;;;7.58;5.67;;;;;;;9.99;86.58;100003.17;1673547;84;21563;-77
2022/09/19 09:48:54;;;;;;;6.10;4.83;;;;;;;10.06;86.64;99999.32;1687311;84;21535;-77
2022/09/19 09:51:54;;;;;;;6.05;5.28;;;;;;;10.15;86.69;100004.95;1679715;84;21430;-77
2022/09/19 09:57:36;;;;;;;5.00;4.17;;;;;;;10.33;86.78;100002.82;1658801;84;21114;-78
2022/09/19 10:03:36;;;;;;;5.28;2.92;;;;;;;10.44;86.80;99998.91;1642782;84;21134;-77
2022/09/19 10:06:27;;;;;;;3.60;3.30;;;;;;;10.49;86.89;100003.19;1672642;84;20984;-79
2022/09/19 10:09:19;;;;;;;4.80;2.95;;;;;;;10.59;86.93;99997.62;1684849;83;21073;-79
2022/09/19 10:12:21;;;;;;;3.37;2.35;;;;;;;10.73;87.01;99998.97;1675613;84;22130;-78
2022/09/19 10:14:46;;;;;;;3.40;2.65;;;;;;;10.78;86.99;99998.44;1678079;84;21051;-78
2022/09/19 10:17:12;;;;;;;2.92;2.55;;;;;;;10.93;87.04;100003.30;1678771;84;21102;-78
2022/09/19 10:19:57;;;;;;;6.60;3.65;;;;;;;10.99;87.02;99999.90;1705731;83;21085;-77
2022/09/19 10:22:23;;;;;;;5.17;4.17;;;;;;;11.01;87.00;100000.56;1664543;84;21052;-77
2022/09/19 10:24:55;;;;;;;4.92;3.58;;;;;;;11.03;87.01;99999.86;1661641;84;21142;-77
2022/09/19 10:27:26;;;;;;;3.65;3.25;;;;;;;11.12;87.02;100009.43;1649518;84;21050;-78
2022/09/19 10:30:21;;;;;;;3.98;2.55;;;;;;;11.10;86.98;100011.97;1679687;84;21670;-78
2022/09/19 10:32:47;;;;;;;4.00;3.15;;;;;;;11.07;86.96;100007.83;1662107;84;21069;-78
2022/09/19 10:35:33;;;;;;;4.42;2.95;;;;;;;11.01;86.92;100013.91;1672944;84;21081;-78
2022/09/19 10:38:07;;;;;;;5.20;3.00;;;;;;;10.93;86.89;100021.98;1668731;84;21355;-79
2022/09/19 10:40:33;;;;;;;3.58;2.58;;;;;;;10.86;86.85;100025.05;1671157;84;21591;-77
2022/09/19 10:42:59;;;;;;;4.87;3.85;;;;;;;10.77;86.82;100032.78;1676012;84;21715;-78
2022/09/19 10:45:32;;;;;;;4.47;3.25;;;;;;;10.71;86.81;100029.01;1678319;83;21055;-76
2022/09/19 10:48:04;;;;;;;5.58;3.30;;;;;;;10.70;86.81;100037.17;1677399;83;21076;-76
2022/09/19 10:50:30;;;;;;;3.92;2.92;;;;;;;10.74;86.83;100039.31;1651249;85;22011;-77
2022/09/19 10:53:04;;;;;;;4.92;3.17;;;;;;;10.81;86.82;100036.75;1626940;83;21094;-77
2022/09/19 10:55:33;;;;;;;6.05;3.87;;;;;;;10.84;86.82;100043.89;1671510;84;21098;-76
2022/09/19 10:58:03;;;;;;;4.28;2.83;;;;;;;10.89;86.83;100044.69;1669595;83;21083;-78
2022/09/19 11:00:33;;;;;;;4.25;2.58;;;;;;;10.97;86.85;100035.28;1657840;84;21144;-77
2022/09/19 11:03:02;;;;;;;4.20;2.67;;;;;;;11.14;86.90;100036.78;1676728;83;21590;-78
2022/09/19 11:05:30;;;;;;;;;;;;;;;11.33;86.92;100036.23;1686137;84;21023;-77
2022/09/19 11:07:59;;;;;;;5.40;1.95;;;;;;;11.54;86.94;100034.98;1666822;84;20217;-76
2022/09/19 11:10:38;;;;;;;3.37;2.40;;;;;;;11.75;86.97;100036.13;1677039;82;21523;-76
2022/09/19 11:13:13;;;;;;;;;;;;;;;11.80;86.93;100039.05;1660485;85;21061;-76
2022/09/19 11:16:05;;;;;;;4.72;2.65;;;;;;;11.84;86.86;100034.99;1698647;82;21124;-76
2022/09/19 11:18:54;;;;;;;3.50;2.40;;;;;;;11.87;86.83;100034.61;1687030;82;21526;-76
2022/09/19 11:21:38;;;;;;;2.90;2.00;;;;;;;11.88;86.81;100041.63;1659442;85;21014;-76
2022/09/19 11:24:21;;;;;;;3.30;1.77;;;;;;;11.87;86.74;100034.61;1702876;84;21093;-76
2022/09/19 11:27:21;;;;;;;2.30;1.77;;;;;;;11.85;86.66;100032.66;1670358;84;21585;-77
2022/09/19 11:30:11;;;;;;;3.52;2.15;;;;;;;11.91;86.66;100040.75;1678619;84;21715;-77
2022/09/19 11:33:00;;;;;;;3.37;1.90;;;;;;;11.97;86.57;100043.16;1682872;84;21098;-77
2022/09/19 11:35:29;;;;;;;2.12;1.55;;;;;;;11.85;86.44;100041.50;1696094;83;21558;-76
2022/09/19 11:38:32;;;;;;;2.67;2.20;;;;;;;11.86;86.42;100035.62;1694240;83;21594;-77
2022/09/19 11:41:17;;;;;;;3.33;1.83;;;;;;;11.96;86.41;100038.86;1674788;84;21023;-77
2022/09/19 11:44:10;;;;;;;1.85;1.57;;;;;;;12.04;86.31;100032.05;1668090;84;21178;-77
2022/09/19 11:47:00;;;;;;;4.80;3.47;;;;;;;12.01;86.22;100033.76;1698806;82;21067;-77
2022/09/19 11:50:01;;;;;;;5.90;4.67;;;;;;;12.14;86.22;100035.23;1685811;84;21031;-78
2022/09/19 11:52:56;;;;;;;9.05;5.17;;;;;;;12.39;86.23;100032.53;1676497;84;21042;-78
2022/09/19 11:56:10;;;;;;;5.92;3.35;;;;;;;12.69;86.17;100027.89;1681154;84;21126;-76
